Carlos Tavares

Olheiro-Chefe - America Mineiro
20 Nov 2027
Sábado
Processo

Personalidade

Adaptabilidade (6) Ambição (3) Controvérsia (14) Lealdade (18) Pressão (16) Profissionalismo (11) Espírito Esportivo (17) Temperamento (16)

Perfil

Estilo de Treinamento Democrático
Licença Continental B
Determinação 8
Gestão de Pessoas 6
Motivação 4
Disciplina 9
Satisfação no Trabalho
100%
Fadiga
0%
Função Olheiro-Chefe
Salário 16.4K p/s
Contrato 14.03.2030

Desempenho

Comportamento Bom
Eficácia do Treinamento
39%
Desenvolvimento do Jogador
30%
Prevenção de Lesões
25%
Implementação Tática
25%

Eventos Recentes

Participou de uma reunião de recrutamento agora
Recomendou um alvo de transferência agora
Recomendou um alvo de transferência agora
Participou de uma reunião de recrutamento 7d atrás
Recomendou um alvo de transferência 7d atrás
Recomendou um alvo de transferência 7d atrás
Recomendou um alvo de transferência 7d atrás
Recomendou um alvo de transferência 7d atrás

Monitorando agora

96
Jogador Clube Status Habilidade Confiança Observado Última observação Último voto
Caio Vidal FC Copenhagen Negociando 128 / 129 63% 1 01.06.2027 Aprovar
Amar Memić Juventude Negociando 127 / 128 62% 1 01.06.2027 Aprovar
Konstantin Tyukavin Arsenal Negociando 133 / 134 67% 1 01.06.2027 Aprovar
Trezeguet Zaki Al Ahly Negociando 117 / 124 67% 1 01.06.2027 Aprovar
Aidan Morris Middlesbrough Ativo 127 / 131 40% 2 28.05.2027 -
Jarleysom Portimonense Ativo 114 / 121 40% 1 28.05.2027 -
Luke McNally Bristol City Ativo 133 / 123 40% 2 27.05.2027 Mais informações
Christian Krasnodar Ativo 131 / 137 40% 1 27.05.2027 -
Samuele Angori Pisa Ativo 126 / 129 40% 1 26.05.2027 -
Pastor CSKA Sofia Ativo 138 / 128 40% 3 25.05.2027 -
Adam Randell Bristol City Ativo 136 / 135 40% 1 25.05.2027 -
Pelle Mattsson Norwich City Ativo 135 / 122 40% 1 24.05.2027 -
Brad Hills Stockport County Ativo 120 / 117 40% 1 24.05.2027 -
Gustavo Garcia Famalicao Ativo 120 / 123 40% 4 22.05.2027 -
Andrea Carboni Monza Ativo 135 / 122 40% 1 22.05.2027 -
Brian De Keersmaecker Oxford United Ativo 113 / 121 40% 1 21.05.2027 -
Alfie Gilchrist West Bromwich Albion Ativo 132 / 122 40% 1 21.05.2027 Mais informações
João Muniz Sporting CP Ativo 129 / 126 40% 3 18.05.2027 -
Max Conway Bolton Wanderers Ativo 115 / 127 40% 4 18.05.2027 -
Lewis Bate Stockport County Ativo 111 / 114 40% 2 17.05.2027 -
Ethan Pye Stockport County Ativo 119 / 117 40% 1 16.05.2027 -
Kane Wilson Milton Keynes Dons Ativo 116 / 123 40% 2 11.05.2027 -
Alfie Doughty Millwall Ativo 135 / 133 40% 2 10.05.2027 -
Tristan Crama Millwall Ativo 121 / 135 40% 1 10.05.2027 -
Leighton Clarkson Blackpool Ativo 105 / 107 40% 1 08.05.2027 -
Reuell Walters Luton Town Ativo 116 / 111 40% 1 08.05.2027 -
Isma Ruiz Córdoba Ativo 138 / 129 40% 1 05.05.2027 -
Maicon Levski Ativo 120 / 120 40% 2 03.05.2027 -
Ilario Monterisi Frosinone Ativo 125 / 127 40% 1 03.05.2027 -
Óscar Rivas Vitoria Guimaraes Ativo 122 / 123 40% 3 30.04.2027 -
James Morris Leyton Orient Ativo 119 / 125 40% 3 27.04.2027 -
Ben Chrisene Sheffield Wednesday Ativo 123 / 115 40% 2 27.04.2027 -
Idris El Mizouni Leyton Orient Ativo 112 / 123 40% 1 26.04.2027 -
Oumar Solet Udinese Ativo 149 / 146 40% 1 26.04.2027 -
Tommaso Barbieri Cremonese Ativo 129 / 124 40% 1 22.04.2027 -
Gustavo Assunção Apollon Ativo 134 / 131 40% 1 22.04.2027 -
Morten Frendrup Genoa Ativo 134 / 147 40% 1 21.04.2027 -
Nobel Mendy Hull City Ativo 121 / 143 40% 1 20.04.2027 -
Ousmane Diakité West Bromwich Albion Ativo 124 / 115 40% 3 19.04.2027 -
Toby Collyer West Bromwich Albion Ativo 135 / 124 40% 1 17.04.2027 -
Liam Thompson Mansfield Town Ativo 122 / 109 40% 1 16.04.2027 -
Max Johnston Derby County Ativo 133 / 125 40% 1 12.04.2027 -
Di'Shon Bernard Sheffield Wednesday Ativo 128 / 124 40% 1 08.04.2027 -
Edoardo Bove Watford Ativo 132 / 124 40% 1 06.04.2027 -
Kayne Ramsay Charlton Athletic Ativo 120 / 136 40% 1 04.04.2027 -
Josh Edwards Charlton Athletic Ativo 110 / 129 40% 1 02.04.2027 -
Tim Iroegbunam Hull City Ativo 141 / 136 40% 1 01.04.2027 -
Matheus Dias Nacional Ativo 131 / 125 40% 2 31.03.2027 -
Brayan Medina Tondela Ativo 121 / 119 40% 1 30.03.2027 -
Jordan Holsgrove Estoril Praia Ativo 122 / 127 40% 1 30.03.2027 -
Nabil Touaizi Alverca Ativo 121 / 125 40% 2 29.03.2027 -
Francisco Moura Penafiel Ativo 138 / 139 40% 3 23.03.2027 -
Facundo Cáseres Gil Vicente Ativo 114 / 116 40% 2 22.03.2027 -
Tony Strata Vitoria Guimaraes Ativo 112 / 134 40% 3 21.03.2027 -
Marvin Elimbi Gil Vicente Ativo 113 / 127 40% 4 21.03.2027 -
Mathias De Amorim Famalicao Ativo 119 / 134 40% 1 20.03.2027 -
De Lucca Adana Demirspor Ativo 121 / 118 40% 2 15.03.2027 -
Joe Hodge Tondela Ativo 128 / 129 40% 1 15.03.2027 -
Javi Vázquez Torreense Ativo 126 / 126 40% 4 14.03.2027 -
João Mendes Vitoria Guimaraes Ativo 131 / 128 40% 2 12.03.2027 -
Dinis Pinto Moreirense Ativo 130 / 133 40% 2 12.03.2027 -
Shea Charles Southampton Ativo 141 / 124 40% 1 04.03.2027 -
Jose Fontán Arouca Ativo 120 / 119 40% 1 03.03.2027 -
Luciano Juba Bahia Ativo 134 / 124 40% 3 01.03.2027 -
Weverson Gil Vicente Ativo 118 / 113 40% 3 27.02.2027 -
Callum Doyle Wrexham Ativo 124 / 135 40% 1 26.02.2027 -
Soufiane Messeguem Académico de Viseu Ativo 116 / 122 40% 1 26.02.2027 -
Ricard Sánchez Estoril Praia Ativo 125 / 125 40% 1 25.02.2027 -
Luan Patrick Estrela da Amadora Ativo 113 / 123 40% 3 21.02.2027 -
Beni Mukendi Vitoria Guimaraes Ativo 131 / 134 40% 3 20.02.2027 -
Welington Southampton Ativo 127 / 117 40% 3 20.02.2027 -
Francisco Domingues Moreirense Ativo 115 / 113 40% 1 19.02.2027 -
Hugo Pérez Torreense Ativo 107 / 122 40% 1 10.02.2027 -
Max Bird Birmingham Ativo 137 / 122 40% 1 08.02.2027 -
MT Santa Clara Ativo 113 / 131 40% 1 12.01.2027 -
Bruno Amione Santos Laguna Ativo 101 / 112 40% 1 07.01.2027 -
David Sousa Casa Pia Ativo 130 / 123 40% 1 06.01.2027 -
Marcos Antonio Sport Recife Ativo 154 / 148 40% 1 04.01.2027 -
Santi García Gil Vicente Ativo 122 / 130 40% 1 16.12.2026 -
Jalen Blesa Rio Ave Ativo 130 / 126 40% 1 16.12.2026 -
Felipe Andrade Houston Dynamo Ativo 101 / 119 40% 1 14.08.2026 -
Felipe Silva Porto Ativo 118 / 106 40% 1 13.08.2026 -
Rafael Santos St. Louis CITY SC Ativo 118 / 105 40% 1 13.08.2026 -
Liberato Moreirense Ativo 100 / 104 40% 1 12.08.2026 -
Liziero Nacional Ativo 134 / 113 40% 1 10.08.2026 -
Bernardo Schappo Estrela da Amadora Ativo 125 / 115 40% 1 10.08.2026 -
Davi Schuindt AVS Ativo 97 / 95 40% 1 09.08.2026 -
Beraldo Paris Saint-Germain Ativo 154 / 137 40% 1 09.08.2026 -
Roni AVS Ativo 106 / 123 40% 2 06.08.2026 -
Zé Ricardo Tondela Ativo 106 / 99 40% 1 06.08.2026 -
Anílson Pacos de Ferreira Ativo 100 / 114 40% 1 05.08.2026 -
Léo Santos Nacional Ativo 119 / 109 40% 1 04.08.2026 -
Evander FC Cincinnati Ativo 127 / 152 40% 1 03.08.2026 -
Kaíque Rocha Casa Pia Ativo 111 / 106 40% 1 02.08.2026 -
Samuel Dahl Benfica Ativo 144 / 149 40% 1 01.08.2026 -
Bruno Ramos Sporting CP Ativo 92 / 106 40% 1 01.08.2026 -